createdAt,value
2022-11-18T00:04:20.685Z,0
2022-11-18T00:23:34.604Z,0
2022-11-18T00:42:48.636Z,0
2022-11-18T01:02:02.630Z,0
2022-11-18T01:21:16.976Z,0
2022-11-18T01:40:31.374Z,0
2022-11-18T01:59:44.831Z,0
2022-11-18T02:18:58.691Z,0
2022-11-18T02:38:12.699Z,0
2022-11-18T02:57:27.049Z,0
2022-11-18T03:16:41.221Z,0
2022-11-18T03:35:55.238Z,0
2022-11-18T03:55:09.391Z,0
2022-11-18T04:14:22.691Z,0
2022-11-18T04:33:36.703Z,0
2022-11-18T04:52:50.448Z,0
2022-11-18T05:12:04.037Z,0
2022-11-18T05:31:17.525Z,0
2022-11-18T05:50:31.226Z,0
2022-11-18T06:09:45.342Z,0.83
2022-11-18T06:28:58.245Z,6.67
2022-11-18T06:48:12.015Z,25.83
2022-11-18T07:07:25.757Z,37.5
2022-11-18T07:26:39.137Z,132.5
2022-11-18T07:45:52.700Z,120.83
2022-11-18T08:05:06.164Z,146.67
2022-11-18T08:24:19.998Z,222.5
2022-11-18T08:43:33.697Z,210.83
2022-11-18T09:02:47.144Z,171.67
2022-11-18T09:22:00.073Z,223.33
2022-11-18T09:41:13.758Z,440
2022-11-18T10:00:27.101Z,334.17
2022-11-18T10:19:40.343Z,465.83
2022-11-18T10:38:54.192Z,509.17
2022-11-18T10:58:08.163Z,508.33
2022-11-18T11:17:21.762Z,532.5
2022-11-18T11:36:34.934Z,551.67
2022-11-18T11:55:48.214Z,433.33
2022-11-18T12:15:02.407Z,440
2022-11-18T12:34:15.184Z,698.33
2022-11-18T12:53:28.191Z,427.5
2022-11-18T13:12:41.730Z,558.33
2022-11-18T13:31:54.910Z,435
2022-11-18T13:51:07.359Z,252.5
2022-11-18T14:10:20.026Z,202.5
2022-11-18T14:29:32.779Z,72.5
2022-11-18T14:48:46.129Z,54.17
2022-11-18T15:07:59.479Z,43.33
2022-11-18T15:27:12.638Z,10
2022-11-18T15:36:49.205Z,5
2022-11-18T15:46:25.330Z,0.83
2022-11-18T16:05:37.687Z,0.83
2022-11-18T16:24:53.271Z,0.83
2022-11-18T16:34:27.200Z,0
2022-11-18T16:53:40.010Z,0
2022-11-18T17:03:15.959Z,0
2022-11-18T17:22:28.115Z,0
2022-11-18T17:41:41.354Z,0
2022-11-18T18:00:54.265Z,0
2022-11-18T18:10:31.034Z,0
2022-11-18T18:20:08.471Z,0
2022-11-18T18:29:43.872Z,0
2022-11-18T18:39:20.386Z,0
2022-11-18T18:58:33.504Z,0
2022-11-18T19:08:10.029Z,0
2022-11-18T19:17:46.460Z,0
2022-11-18T19:36:58.801Z,0
2022-11-18T19:56:12.457Z,0
2022-11-18T20:05:47.813Z,0
2022-11-18T20:15:24.485Z,0
2022-11-18T20:25:00.771Z,0
2022-11-18T20:34:37.165Z,0
2022-11-18T20:44:13.661Z,0
2022-11-18T20:53:50.323Z,0
2022-11-18T21:03:26.571Z,0
2022-11-18T21:13:03.171Z,0
2022-11-18T21:22:39.559Z,0
2022-11-18T21:32:14.999Z,0
2022-11-18T21:51:27.996Z,0
2022-11-18T22:01:04.359Z,0
2022-11-18T22:10:40.952Z,0
2022-11-18T22:20:17.331Z,0
2022-11-18T22:29:53.856Z,0
2022-11-18T22:39:30.372Z,0
2022-11-18T22:49:06.780Z,0
2022-11-18T22:58:43.010Z,0
2022-11-18T23:08:19.420Z,0
2022-11-18T23:17:55.702Z,0
2022-11-18T23:37:08.819Z,0
2022-11-18T23:46:45.339Z,0
2022-11-18T23:56:21.866Z,0
